createdAt,value
2023-01-27T00:02:33.824Z,2.52
2023-01-27T00:07:37.040Z,2.52
2023-01-27T00:13:07.116Z,2.52
2023-01-27T00:18:11.557Z,2.53
2023-01-27T00:23:34.963Z,2.55
2023-01-27T00:28:39.386Z,2.53
2023-01-27T00:33:45.886Z,2.55
2023-01-27T00:38:48.148Z,2.54
2023-01-27T00:43:53.291Z,2.50
2023-01-27T00:48:58.228Z,2.41
2023-01-27T00:54:03.068Z,2.32
2023-01-27T00:59:05.446Z,2.33
2023-01-27T01:04:08.100Z,2.33
2023-01-27T01:09:11.115Z,2.32
2023-01-27T01:14:13.831Z,2.31
2023-01-27T01:19:16.539Z,2.28
2023-01-27T01:24:19.757Z,2.28
2023-01-27T01:29:22.181Z,2.30
2023-01-27T01:34:24.633Z,2.27
2023-01-27T01:39:32.431Z,2.23
2023-01-27T01:44:34.656Z,2.22
2023-01-27T01:49:40.720Z,2.20
2023-01-27T01:54:56.885Z,2.10
2023-01-27T02:00:08.017Z,2.05
2023-01-27T02:05:40.677Z,1.98
2023-01-27T02:10:49.786Z,1.96
2023-01-27T02:15:56.102Z,1.96
2023-01-27T02:20:58.827Z,1.98
2023-01-27T02:26:17.312Z,1.91
2023-01-27T02:31:39.919Z,1.86
2023-01-27T02:36:56.507Z,1.85
2023-01-27T02:42:19.602Z,1.85
2023-01-27T02:47:31.045Z,1.90
2023-01-27T02:52:34.027Z,1.94
2023-01-27T02:57:36.470Z,1.94
2023-01-27T03:02:54.286Z,1.97
2023-01-27T03:07:57.023Z,1.93
2023-01-27T03:12:59.748Z,1.95
2023-01-27T03:18:11.604Z,1.99
2023-01-27T03:23:16.881Z,2.06
2023-01-27T03:28:22.773Z,2.09
2023-01-27T03:33:37.151Z,2.13
2023-01-27T03:39:14.173Z,2.18
2023-01-27T03:44:35.011Z,2.23
2023-01-27T03:49:39.384Z,2.24
2023-01-27T03:54:41.547Z,2.29
2023-01-27T03:59:48.048Z,2.26
2023-01-27T04:05:08.780Z,2.25
2023-01-27T04:10:11.862Z,2.26
2023-01-27T04:15:14.469Z,2.23
2023-01-27T04:20:38.066Z,2.24
2023-01-27T04:25:40.514Z,2.21
2023-01-27T04:30:44.060Z,2.21
2023-01-27T04:35:46.610Z,2.12
2023-01-27T04:40:48.826Z,1.96
2023-01-27T04:45:51.202Z,1.96
2023-01-27T04:50:53.910Z,1.86
2023-01-27T04:56:05.984Z,1.87
2023-01-27T05:01:07.980Z,1.83
2023-01-27T05:06:17.242Z,1.72
2023-01-27T05:11:20.200Z,1.70
2023-01-27T05:16:25.356Z,1.67
2023-01-27T05:21:28.495Z,1.64
2023-01-27T05:26:31.238Z,1.67
2023-01-27T05:31:33.527Z,1.63
2023-01-27T05:36:36.122Z,1.54
2023-01-27T05:41:38.252Z,1.52
2023-01-27T05:46:42.462Z,1.48
2023-01-27T05:51:48.303Z,1.50
2023-01-27T05:56:50.328Z,1.43
2023-01-27T06:01:52.742Z,1.40
2023-01-27T06:06:55.424Z,1.36
2023-01-27T06:11:57.707Z,1.43
2023-01-27T06:17:01.106Z,1.48
2023-01-27T06:22:12.464Z,1.46
2023-01-27T06:27:15.325Z,1.45
2023-01-27T06:32:17.464Z,1.33
2023-01-27T06:37:22.586Z,1.30
2023-01-27T06:42:25.448Z,1.24
2023-01-27T06:47:27.748Z,1.34
2023-01-27T06:52:30.435Z,1.41
2023-01-27T06:57:33.019Z,1.44
2023-01-27T07:02:38.222Z,1.39
2023-01-27T07:07:43.481Z,1.36
2023-01-27T07:12:45.459Z,1.39
2023-01-27T07:17:47.963Z,1.40
2023-01-27T07:22:53.416Z,1.44
2023-01-27T07:27:58.431Z,1.45
2023-01-27T07:33:10.784Z,1.52
2023-01-27T07:38:15.664Z,1.53
2023-01-27T07:43:18.166Z,1.56
2023-01-27T07:48:21.742Z,1.55
2023-01-27T07:53:23.840Z,1.66
2023-01-27T07:58:26.971Z,1.68
2023-01-27T08:03:29.396Z,1.72
2023-01-27T08:08:32.752Z,1.69
2023-01-27T08:13:36.193Z,1.71
2023-01-27T08:18:40.320Z,1.76
2023-01-27T08:23:42.888Z,1.82
2023-01-27T08:28:45.080Z,1.85
2023-01-27T08:33:53.285Z,1.93
2023-01-27T08:39:06.687Z,2.04
2023-01-27T08:44:12.184Z,2.19
2023-01-27T08:49:15.172Z,2.22
2023-01-27T08:54:17.812Z,2.29
2023-01-27T08:59:20.439Z,2.30
2023-01-27T09:04:23.196Z,2.17
2023-01-27T09:09:25.133Z,2.11
2023-01-27T09:14:27.619Z,2.13
2023-01-27T09:19:32.883Z,2.20
2023-01-27T09:24:35.330Z,2.19
2023-01-27T09:29:37.306Z,2.26
2023-01-27T09:34:39.775Z,2.35
2023-01-27T09:39:56.231Z,2.22
2023-01-27T09:45:38.705Z,2.25
2023-01-27T09:50:53.408Z,2.31
2023-01-27T09:56:20.875Z,2.40
2023-01-27T10:01:46.917Z,2.40
2023-01-27T10:07:07.410Z,2.33
2023-01-27T10:12:24.369Z,2.19
2023-01-27T10:18:15.598Z,2.14
2023-01-27T10:23:57.834Z,2.06
2023-01-27T10:29:23.283Z,2.05
2023-01-27T10:35:02.860Z,1.98
2023-01-27T10:40:16.316Z,2.09
2023-01-27T10:45:40.436Z,2.24
2023-01-27T10:51:02.026Z,2.34
2023-01-27T10:56:25.814Z,2.56
2023-01-27T11:01:38.672Z,2.67
2023-01-27T11:06:43.949Z,2.74
2023-01-27T11:11:50.139Z,2.80
2023-01-27T11:17:02.936Z,2.80
2023-01-27T11:22:20.055Z,2.76
2023-01-27T11:28:13.761Z,2.75
2023-01-27T11:33:51.761Z,2.65
2023-01-27T11:39:07.398Z,2.56
2023-01-27T11:44:23.257Z,2.59
2023-01-27T11:49:32.614Z,2.62
2023-01-27T11:54:42.157Z,2.70
2023-01-27T11:59:46.815Z,2.74
2023-01-27T12:05:04.076Z,2.70
2023-01-27T12:10:36.244Z,2.71
2023-01-27T12:15:58.973Z,2.74
2023-01-27T12:21:08.517Z,2.79
2023-01-27T12:26:12.233Z,2.83
2023-01-27T12:31:33.553Z,2.91
2023-01-27T12:36:44.495Z,2.93
2023-01-27T12:41:47.132Z,2.96
2023-01-27T12:47:35.593Z,2.93
2023-01-27T12:52:38.063Z,2.94
2023-01-27T12:57:43.735Z,2.99
2023-01-27T13:02:47.229Z,2.97
2023-01-27T13:07:53.192Z,2.97
2023-01-27T13:13:05.474Z,2.94
2023-01-27T13:18:23.796Z,2.95
2023-01-27T13:23:35.134Z,2.88
2023-01-27T13:29:13.347Z,2.80
2023-01-27T13:34:29.831Z,2.70
2023-01-27T13:39:51.926Z,2.73
2023-01-27T13:45:01.403Z,2.70
2023-01-27T13:50:16.682Z,2.80
2023-01-27T13:55:47.958Z,2.77
2023-01-27T14:01:25.483Z,2.71
2023-01-27T14:06:28.014Z,2.62
2023-01-27T14:11:47.573Z,2.50
2023-01-27T14:17:02.838Z,2.50
2023-01-27T14:22:26.033Z,2.51
2023-01-27T14:27:40.189Z,2.49
2023-01-27T14:33:03.033Z,2.37
2023-01-27T14:38:33.037Z,2.41
2023-01-27T14:43:51.983Z,2.34
2023-01-27T14:49:32.687Z,2.33
2023-01-27T14:54:58.926Z,2.28
2023-01-27T15:00:12.817Z,2.25
2023-01-27T15:06:13.722Z,2.30
2023-01-27T15:11:51.711Z,2.22
2023-01-27T15:17:12.769Z,2.24
2023-01-27T15:22:42.992Z,2.20
2023-01-27T15:27:47.388Z,2.19
2023-01-27T15:32:49.625Z,2.28
2023-01-27T15:38:17.980Z,2.26
2023-01-27T15:43:25.532Z,2.18
2023-01-27T15:48:34.358Z,2.16
2023-01-27T15:53:42.352Z,2.23
2023-01-27T15:58:58.308Z,2.21
2023-01-27T16:04:27.665Z,2.26
2023-01-27T16:09:51.998Z,2.29
2023-01-27T16:15:22.926Z,2.33
2023-01-27T16:20:37.886Z,2.35
2023-01-27T16:25:46.565Z,2.36
2023-01-27T16:31:03.511Z,2.35
2023-01-27T16:36:27.245Z,2.31
2023-01-27T16:41:36.217Z,2.25
2023-01-27T16:46:53.376Z,2.16
2023-01-27T16:52:01.673Z,2.15
2023-01-27T16:57:06.649Z,2.08
2023-01-27T17:02:20.378Z,1.99
2023-01-27T17:07:23.411Z,1.96
2023-01-27T17:12:34.731Z,2.00
2023-01-27T17:17:39.193Z,2.10
2023-01-27T17:22:44.479Z,2.10
2023-01-27T17:27:50.252Z,2.11
2023-01-27T17:33:00.639Z,2.10
2023-01-27T17:38:24.315Z,2.07
2023-01-27T17:43:39.347Z,2.06
2023-01-27T17:48:52.582Z,2.04
2023-01-27T17:53:56.778Z,2.09
2023-01-27T17:59:11.877Z,2.10
2023-01-27T18:04:15.589Z,2.11
2023-01-27T18:09:28.510Z,2.10
2023-01-27T18:14:37.089Z,2.08
2023-01-27T18:19:51.276Z,2.11
2023-01-27T18:24:57.474Z,2.10
2023-01-27T18:30:28.485Z,2.13
2023-01-27T18:35:34.984Z,2.19
2023-01-27T18:40:45.907Z,2.23
2023-01-27T18:45:50.608Z,2.20
2023-01-27T18:50:53.205Z,2.28
2023-01-27T18:55:55.723Z,2.32
2023-01-27T19:01:01.022Z,2.29
2023-01-27T19:06:03.919Z,2.29
2023-01-27T19:11:14.248Z,2.19
2023-01-27T19:16:19.695Z,2.02
2023-01-27T19:21:22.719Z,1.89
2023-01-27T19:26:27.551Z,1.87
2023-01-27T19:31:30.238Z,1.76
2023-01-27T19:36:42.447Z,1.80
2023-01-27T19:41:48.712Z,1.83
2023-01-27T19:46:59.971Z,1.67
2023-01-27T19:52:05.799Z,1.60
2023-01-27T19:57:15.908Z,1.59
2023-01-27T20:02:21.331Z,1.64
2023-01-27T20:07:26.093Z,1.69
2023-01-27T20:12:29.103Z,1.68
2023-01-27T20:17:32.785Z,1.74
2023-01-27T20:22:36.846Z,1.84
2023-01-27T20:27:39.519Z,1.77
2023-01-27T20:32:42.419Z,1.82
2023-01-27T20:37:48.656Z,1.89
2023-01-27T20:42:52.176Z,1.95
2023-01-27T20:47:54.390Z,1.98
2023-01-27T20:52:57.296Z,1.98
2023-01-27T20:58:02.444Z,1.92
2023-01-27T21:03:05.110Z,1.91
2023-01-27T21:08:07.353Z,1.89
2023-01-27T21:13:12.172Z,1.87
2023-01-27T21:18:20.722Z,1.92
2023-01-27T21:23:28.075Z,1.93
2023-01-27T21:28:31.948Z,1.97
2023-01-27T21:33:36.279Z,1.99
2023-01-27T21:38:40.058Z,2.05
2023-01-27T21:44:01.204Z,2.01
2023-01-27T21:49:04.025Z,1.92
2023-01-27T21:54:10.484Z,1.92
2023-01-27T21:59:13.043Z,1.93
2023-01-27T22:04:18.800Z,1.92
2023-01-27T22:09:24.049Z,1.84
2023-01-27T22:14:31.648Z,1.83
2023-01-27T22:19:39.212Z,1.82
2023-01-27T22:24:42.237Z,1.88
2023-01-27T22:29:44.882Z,1.93
2023-01-27T22:34:50.815Z,1.98
2023-01-27T22:39:55.875Z,1.94
2023-01-27T22:45:01.811Z,1.95
2023-01-27T22:50:08.802Z,1.92
2023-01-27T22:55:13.228Z,1.88
2023-01-27T23:00:21.004Z,1.99
2023-01-27T23:05:26.700Z,2.02
2023-01-27T23:10:29.264Z,2.05
2023-01-27T23:15:31.586Z,2.03
2023-01-27T23:20:34.951Z,1.98
2023-01-27T23:25:45.175Z,1.92
2023-01-27T23:30:53.848Z,1.92
2023-01-27T23:35:57.620Z,1.93
2023-01-27T23:41:04.756Z,1.90
2023-01-27T23:46:11.457Z,1.97
2023-01-27T23:51:20.113Z,1.99
2023-01-27T23:56:22.694Z,2.05
